Impacts TAF Board INFO
FOR SITUATIONAL AWARENESS. NOT TO BE USED FOR FLIGHT PLANNING PURPOSES.
IDs:

KIAH - Houston/Bush Intl, TX, US

Issued at 2118 UTC 24 Jan 2017
Updated at 2125 UTC 24 Jan 2017
Potential Impact None Slight Moderate High
Time2053Z 24/22Z 24/23Z 25/00Z 25/01Z 25/02Z 25/03Z 25/04Z 25/05Z 25/06Z 25/07Z 25/08Z 25/09Z 25/10Z
Type OBS PRVL PRVL PRVL PRVL PRVL PRVL PRVL PRVL PRVL PRVL PRVL PRVL PRVL
VIS 10 >6 >6 >6 >6 >6 >6 >6 >6 >6 >6 >6 >6 >6
CIG -- -- -- -- -- -- 25 25 25 25 25 25 15 15
Cover SCT SCT SCT SCT SCT SCT BKN BKN BKN BKN BKN BKN OVC OVC
FltCat VFR VFR VFR VFR VFR VFR MVFR MVFR MVFR MVFR MVFR MVFR MVFR MVFR
WX -- -- -- -- -- -- -- -- -- -- -- -- VCSH VCSH
WDir 170 180 180 170 170 170 180 180 180 180 180 180 230 230
WSpd 15 12 12 9 9 9 9 9 9 9 9 9 6 6
WGst 18 22 22 -- -- -- -- -- -- -- -- -- -- --

Raw TAF
KIAH 242118Z 2421/2524 18012G22KT P6SM SCT040 SCT250
  FM250000 17009KT P6SM SCT025
  FM250300 18009KT P6SM BKN025
  FM250900 23006KT P6SM VCSH SCT005 BKN015 OVC025
  FM251500 31009KT P6SM SCT015 BKN050 BKN250
  FM251800 34012KT P6SM BKN250


Raw METAR
KIAH 242053Z 17015G18KT 10SM FEW040 SCT250 26/16 A2973 RMK AO2 SLP066 T02610156 56028
KIAH 241953Z 17014G19KT 10SM FEW040 FEW250 27/15 A2975 RMK AO2 SLP073 T02670150
KIAH 241853Z 17014G18KT 10SM FEW040 FEW250 26/14 A2978 RMK AO2 SLP082 T02560144

METAR Board
Radar Display
Forecast Discussion

FOR SITUATIONAL AWARENESS. NOT TO BE USED FOR FLIGHT PLANNING PURPOSES.

Page loaded:  21:25 UTC  |   01:25 PM Pacific  |   02:25 PM Mountain  |   03:25 PM Central  |   04:25 PM Eastern

 

ADVISORIES

FORECASTS

FORECASTS

OBSERVATIONS

USER TOOLS

ABOUT US